Tropical Cyclones
[Index]
Main Index Home Page Stock Weather Photos Extreme Storms Discussion Storm News and Storm Chasing Reports Tropical Cyclones / Hurricanes / Typhoons Weather Data and Links Wild Fires / Bushfires Weather Observation Techniques Weather Picture Catalogue Tornado Pictures and Reports Stock Video Footage and DVDs for sale
Season 2003-2004 Tropical Cyclone MONTY Track Map
Season 2003-2004 Summaries (Operational Data): [AU] [SIO] [SPAC] [SH]
<<- Previous TC | 2003-2004 Season | Next TC ->>

click for intensity scale information  Lat/long Grid: Show Hide

 Date Labels: Show Hide

Operational Tropical Cyclone Data : JTWC Advisories

Name: MONTY
Number: 0414

26 Feb 2004 04:00 UTC to 02 Mar 2004 19:00 UTC

    date/time    lat    long     hPa   cat  kts
2004-02-26 04   18.0   123.5    1003         25          
2004-02-27 01   18.5   120.5     999         30          
2004-02-27 04   18.7   120.2     997         30          
2004-02-27 10   19.1   119.8     995    1    45          
2004-02-27 16   19.1   119.3     995    1    45          
2004-02-27 19   19.2   119.0     990    1    45          
2004-02-27 22   19.3   118.8     985    2    50          
2004-02-28 04   19.3   118.0     970    2    55          
2004-02-28 10   19.1   117.4     955    3    70          
2004-02-28 16   18.9   117.0     955    3    70          
2004-02-28 22   19.1   116.6     955    3    70          
2004-02-29 04   19.4   116.0     950    3    80          
2004-02-29 10   19.8   115.6     935    4    95          
2004-02-29 16   20.1   115.2     935    4    95          
2004-02-29 22   20.2   115.2     935    4    90          
2004-03-01 05   20.6   115.4     945    3    85          
2004-03-01 10   21.0   115.6     950    3    85          
2004-03-01 16   21.2   116.0     955    3    80          
2004-03-01 22   21.6   116.1     960    3    70          
2004-03-02 03   21.9   116.2     970    2    60          
2004-03-02 07   22.8   116.7     980    2    50          
2004-03-02 13   23.5   117.2     985    1    45          
2004-03-02 19   24.2   118.0     995         30          
Winds are 10-min average.

Tropical cyclone tracks developed by Michael Bath using operational warnings and advisories and Google Maps.


[Australian Severe Weather index] [Copyright Notice] [Email Contacts] [Search This Site] [Privacy Policy]
Document: tropical_cyclone_monty.htm Updated: 28 May 2013